Providence, Rhode Island
Traffic Map
Current Weather Conditions
Providence, Rhode Island
Clear
Clear

Feels Like: 2°
Wind Chill: Ceiling: Unl
Heat Index: Visibility: 10mi
Dew Point: -4° Wind: 8mph
Humidity: 51% Direction: 10° (N)
Pressure: 30.43in Gusts: 0mph
Raw Report DataKPVD 200751Z AUTO 01007KT 10SM CLR 05/M04 A3043 RMK AO2 SLP305 T00501044
Traffic Incident Summary
Active as of:
Severity:
Category:
InformationThere was an issue retrieving the traffic information for this location. Please try a different location or try again shortly.
Advertisements
At Last! Intellicast now available for iPhone and Android